createdAt,value
2018-12-13T00:01:30.500Z,4.20
2018-12-13T00:04:04.534Z,4.20
2018-12-13T00:06:36.509Z,4.20
2018-12-13T00:09:10.809Z,4.10
2018-12-13T00:11:43.617Z,4.00
2018-12-13T00:14:17.577Z,3.80
2018-12-13T00:16:50.248Z,3.90
2018-12-13T00:19:21.024Z,3.80
2018-12-13T00:21:55.589Z,3.90
2018-12-13T00:24:29.770Z,4.10
2018-12-13T00:27:02.050Z,4.00
2018-12-13T00:29:34.083Z,4.00
2018-12-13T00:32:06.641Z,3.90
2018-12-13T00:34:41.172Z,3.90
2018-12-13T00:37:13.949Z,4.00
2018-12-13T00:39:49.538Z,3.90
2018-12-13T00:42:22.553Z,3.90
2018-12-13T00:44:57.431Z,3.90
2018-12-13T00:47:29.502Z,4.00
2018-12-13T00:50:04.029Z,4.10
2018-12-13T00:52:36.555Z,4.00
2018-12-13T00:55:11.158Z,3.90
2018-12-13T00:57:45.381Z,3.90
2018-12-13T01:00:23.546Z,3.90
2018-12-13T01:02:58.982Z,3.90
2018-12-13T01:05:33.490Z,3.80
2018-12-13T01:08:06.141Z,3.60
2018-12-13T01:10:41.013Z,3.70
2018-12-13T01:13:15.527Z,3.90
2018-12-13T01:15:50.199Z,4.00
2018-12-13T01:18:25.191Z,4.00
2018-12-13T01:20:57.677Z,4.00
2018-12-13T01:23:32.161Z,3.90
2018-12-13T01:26:04.192Z,4.00
2018-12-13T01:28:36.544Z,4.10
2018-12-13T01:31:10.840Z,4.00
2018-12-13T01:33:45.899Z,4.10
2018-12-13T01:36:21.213Z,4.00
2018-12-13T01:38:55.979Z,3.80
2018-12-13T01:41:30.074Z,3.90
2018-12-13T01:44:02.980Z,3.80
2018-12-13T01:46:34.886Z,3.80
2018-12-13T01:49:09.430Z,3.80
2018-12-13T01:51:42.300Z,3.80
2018-12-13T01:54:22.765Z,3.80
2018-12-13T01:56:54.937Z,3.90
2018-12-13T01:59:31.919Z,3.70
2018-12-13T02:02:08.679Z,3.80
2018-12-13T02:04:40.619Z,3.80
2018-12-13T02:07:13.212Z,3.70
2018-12-13T02:09:47.503Z,3.80
2018-12-13T02:12:21.683Z,3.80
2018-12-13T02:14:52.314Z,3.70
2018-12-13T02:17:24.792Z,3.80
2018-12-13T02:20:01.086Z,3.80
2018-12-13T02:22:33.128Z,3.80
2018-12-13T02:25:05.611Z,3.80
2018-12-13T02:27:38.263Z,3.80
2018-12-13T02:30:11.675Z,3.60
2018-12-13T02:32:46.252Z,3.70
2018-12-13T02:35:21.303Z,3.60
2018-12-13T02:37:54.144Z,3.60
2018-12-13T02:40:28.971Z,3.60
2018-12-13T02:43:01.153Z,3.60
2018-12-13T02:45:33.575Z,3.60
2018-12-13T02:48:06.277Z,3.60
2018-12-13T02:50:42.701Z,3.80
2018-12-13T02:53:17.703Z,3.80
2018-12-13T02:55:52.964Z,3.70
2018-12-13T02:58:25.625Z,3.80
2018-12-13T03:01:04.257Z,3.50
2018-12-13T03:03:39.091Z,3.60
2018-12-13T03:06:10.992Z,3.70
2018-12-13T03:08:46.525Z,3.70
2018-12-13T03:11:21.689Z,3.70
2018-12-13T03:13:56.775Z,3.80
2018-12-13T03:16:31.772Z,3.80
2018-12-13T03:19:06.300Z,3.90
2018-12-13T03:21:41.483Z,3.90
2018-12-13T03:24:16.534Z,3.90
2018-12-13T03:26:51.419Z,3.90
2018-12-13T03:29:22.292Z,3.90
2018-12-13T03:31:56.581Z,3.90
2018-12-13T03:34:31.139Z,3.90
2018-12-13T03:37:04.343Z,3.90
2018-12-13T03:39:37.408Z,3.80
2018-12-13T03:42:12.507Z,3.80
2018-12-13T03:44:47.767Z,3.80
2018-12-13T03:47:20.735Z,3.70
2018-12-13T03:50:06.216Z,3.70
2018-12-13T03:52:44.187Z,3.80
2018-12-13T03:55:18.656Z,3.60
2018-12-13T03:57:52.909Z,3.60
2018-12-13T04:00:28.185Z,3.50
2018-12-13T04:03:03.260Z,3.50
2018-12-13T04:05:36.038Z,3.60
2018-12-13T04:08:10.336Z,3.60
2018-12-13T04:10:42.470Z,3.50
2018-12-13T04:13:15.437Z,3.50
2018-12-13T04:15:54.371Z,3.50
2018-12-13T04:18:30.443Z,3.40
2018-12-13T04:21:06.807Z,3.50
2018-12-13T04:23:45.827Z,3.20
2018-12-13T04:26:21.030Z,3.10
2018-12-13T04:28:57.111Z,3.30
2018-12-13T04:34:29.085Z,3.00
2018-12-13T04:37:03.472Z,3.00
2018-12-13T04:39:48.228Z,3.20
2018-12-13T04:42:21.180Z,3.20
2018-12-13T04:44:53.645Z,3.20
2018-12-13T04:47:28.442Z,3.20
2018-12-13T04:49:59.196Z,3.30
2018-12-13T04:52:33.291Z,3.30
2018-12-13T04:55:05.559Z,3.30
2018-12-13T04:57:43.812Z,3.10
2018-12-13T05:00:21.971Z,3.20
2018-12-13T05:02:56.529Z,3.00
2018-12-13T05:05:31.822Z,2.90
2018-12-13T05:08:04.103Z,3.00
2018-12-13T05:10:43.491Z,3.10
2018-12-13T05:13:16.266Z,3.00
2018-12-13T05:15:50.697Z,2.90
2018-12-13T05:18:23.075Z,2.90
2018-12-13T05:21:00.224Z,2.90
2018-12-13T05:23:36.932Z,2.90
2018-12-13T05:26:11.555Z,2.90
2018-12-13T05:28:44.190Z,3.10
2018-12-13T05:31:18.249Z,3.30
2018-12-13T05:33:56.324Z,3.10
2018-12-13T05:36:28.353Z,3.00
2018-12-13T05:39:00.540Z,3.30
2018-12-13T05:41:32.894Z,3.70
2018-12-13T05:44:07.646Z,3.80
2018-12-13T05:46:40.066Z,3.50
2018-12-13T05:49:14.538Z,3.50
2018-12-13T05:51:51.698Z,3.70
2018-12-13T05:54:27.847Z,3.60
2018-12-13T05:56:59.594Z,3.30
2018-12-13T05:59:31.950Z,3.50
2018-12-13T06:02:05.185Z,3.30
2018-12-13T06:04:39.518Z,3.10
2018-12-13T06:07:13.646Z,3.20
2018-12-13T06:09:47.822Z,3.60
2018-12-13T06:12:21.784Z,3.30
2018-12-13T06:14:56.737Z,3.40
2018-12-13T06:17:37.208Z,3.40
2018-12-13T06:20:12.109Z,3.10
2018-12-13T06:22:46.404Z,3.30
2018-12-13T06:25:19.252Z,3.50
2018-12-13T06:27:50.310Z,3.70
2018-12-13T06:30:21.984Z,3.80
2018-12-13T06:32:56.668Z,3.90
2018-12-13T06:38:29.972Z,3.40
2018-12-13T06:41:03.053Z,3.60
2018-12-13T06:43:34.984Z,3.60
2018-12-13T06:46:10.818Z,3.60
2018-12-13T06:48:45.541Z,3.70
2018-12-13T06:51:17.685Z,3.80
2018-12-13T06:53:52.231Z,3.90
2018-12-13T06:56:28.085Z,3.90
2018-12-13T06:59:02.738Z,3.50
2018-12-13T07:01:40.735Z,3.60
2018-12-13T07:04:14.942Z,3.80
2018-12-13T07:06:47.671Z,3.80
2018-12-13T07:09:22.665Z,3.80
2018-12-13T07:11:55.135Z,3.80
2018-12-13T07:14:29.363Z,3.80
2018-12-13T07:17:08.102Z,3.80
2018-12-13T07:19:48.530Z,3.60
2018-12-13T07:22:24.292Z,3.50
2018-12-13T07:25:10.912Z,3.40
2018-12-13T07:27:43.343Z,3.40
2018-12-13T07:30:15.622Z,3.40
2018-12-13T07:32:50.709Z,3.50
2018-12-13T07:35:24.631Z,3.30
2018-12-13T07:37:54.960Z,3.40
2018-12-13T07:40:26.868Z,3.40
2018-12-13T07:43:02.829Z,3.40
2018-12-13T07:45:35.529Z,3.40
2018-12-13T07:48:08.852Z,3.40
2018-12-13T07:50:40.905Z,3.40
2018-12-13T07:53:15.225Z,3.50
2018-12-13T07:55:47.093Z,3.50
2018-12-13T07:58:22.555Z,3.50
2018-12-13T08:00:56.554Z,3.50
2018-12-13T08:03:28.427Z,3.40
2018-12-13T08:06:04.386Z,3.60
2018-12-13T08:08:45.313Z,3.60
2018-12-13T08:11:17.572Z,3.50
2018-12-13T08:13:49.792Z,3.70
2018-12-13T08:16:23.534Z,3.70
2018-12-13T08:18:58.442Z,3.50
2018-12-13T08:21:32.892Z,3.40
2018-12-13T08:24:05.302Z,3.40
2018-12-13T08:26:39.979Z,3.50
2018-12-13T08:29:14.204Z,3.40
2018-12-13T08:31:46.209Z,3.40
2018-12-13T08:34:18.114Z,3.70
2018-12-13T08:36:49.050Z,3.40
2018-12-13T08:39:25.893Z,3.60
2018-12-13T08:41:59.030Z,3.80
2018-12-13T08:44:45.639Z,3.80
2018-12-13T08:47:16.238Z,3.60
2018-12-13T08:49:51.441Z,3.70
2018-12-13T08:52:24.381Z,3.70
2018-12-13T08:54:59.180Z,3.70
2018-12-13T08:57:31.346Z,3.80
2018-12-13T09:00:06.236Z,3.80
2018-12-13T09:02:38.345Z,3.80
2018-12-13T09:05:12.723Z,4.00
2018-12-13T09:07:44.606Z,4.00
2018-12-13T09:10:16.711Z,4.20
2018-12-13T09:12:48.984Z,4.20
2018-12-13T09:15:21.390Z,4.30
2018-12-13T09:20:26.528Z,4.40
2018-12-13T09:23:00.767Z,4.50
2018-12-13T09:25:43.142Z,4.60
2018-12-13T09:28:15.336Z,4.60
2018-12-13T09:30:49.759Z,4.70
2018-12-13T09:33:36.399Z,4.60
2018-12-13T09:36:12.422Z,4.70
2018-12-13T09:38:49.209Z,4.60
2018-12-13T09:44:26.547Z,4.70
2018-12-13T09:46:57.124Z,4.50
2018-12-13T09:49:29.411Z,4.60
2018-12-13T09:52:04.568Z,4.40
2018-12-13T09:54:39.172Z,4.40
2018-12-13T09:57:11.323Z,4.30
2018-12-13T09:59:45.949Z,4.40
2018-12-13T10:02:20.222Z,4.40
2018-12-13T10:04:52.676Z,4.40
2018-12-13T10:07:23.822Z,4.40
2018-12-13T10:09:54.849Z,4.40
2018-12-13T10:12:26.952Z,4.30
2018-12-13T10:15:05.559Z,4.20
2018-12-13T10:17:42.420Z,4.30
2018-12-13T10:20:15.189Z,4.20
2018-12-13T10:22:51.901Z,4.30
2018-12-13T10:25:28.038Z,4.30
2018-12-13T10:28:02.019Z,4.40
2018-12-13T10:30:34.982Z,4.40
2018-12-13T10:33:09.303Z,4.30
2018-12-13T10:35:43.972Z,4.30
2018-12-13T10:38:15.927Z,4.50
2018-12-13T10:40:51.856Z,4.50
2018-12-13T10:43:26.417Z,4.60
2018-12-13T10:45:58.352Z,4.70
2018-12-13T10:48:33.848Z,4.70
2018-12-13T10:51:05.034Z,4.80
2018-12-13T10:53:37.652Z,4.40
2018-12-13T10:56:15.884Z,4.40
2018-12-13T10:58:50.910Z,4.40
2018-12-13T11:01:29.428Z,4.60
2018-12-13T11:04:04.182Z,4.50
2018-12-13T11:06:36.048Z,4.50
2018-12-13T11:09:08.535Z,4.40
2018-12-13T11:11:41.533Z,4.30
2018-12-13T11:14:14.141Z,4.40
2018-12-13T11:16:53.162Z,4.40
2018-12-13T11:19:27.961Z,4.70
2018-12-13T11:22:00.249Z,4.60
2018-12-13T11:24:34.690Z,4.60
2018-12-13T11:27:15.288Z,4.40
2018-12-13T11:29:55.132Z,4.30
2018-12-13T11:32:27.556Z,4.50
2018-12-13T11:35:04.925Z,4.50
2018-12-13T11:37:35.576Z,4.70
2018-12-13T11:40:11.246Z,4.50
2018-12-13T11:42:42.200Z,4.30
2018-12-13T11:45:15.126Z,4.50
2018-12-13T11:47:47.711Z,4.60
2018-12-13T11:50:22.897Z,4.70
2018-12-13T11:52:57.855Z,4.70
2018-12-13T11:55:38.666Z,4.50
2018-12-13T11:58:14.925Z,4.60
2018-12-13T12:00:49.291Z,4.70
2018-12-13T12:03:24.832Z,4.70
2018-12-13T12:05:57.178Z,4.60
2018-12-13T12:08:32.491Z,4.50
2018-12-13T12:11:05.162Z,4.60
2018-12-13T12:13:36.029Z,4.50
2018-12-13T12:16:10.480Z,4.50
2018-12-13T12:18:45.428Z,4.40
2018-12-13T12:21:17.585Z,4.40
2018-12-13T12:24:00.506Z,4.40
2018-12-13T12:26:35.663Z,4.30
2018-12-13T12:29:09.706Z,4.40
2018-12-13T12:31:45.832Z,4.50
2018-12-13T12:34:17.935Z,4.60
2018-12-13T12:36:50.322Z,4.60
2018-12-13T12:39:23.280Z,4.60
2018-12-13T12:41:57.744Z,4.80
2018-12-13T12:44:33.914Z,4.90
2018-12-13T12:50:03.019Z,4.90
2018-12-13T12:52:35.157Z,4.50
2018-12-13T12:55:07.409Z,4.60
2018-12-13T12:57:40.228Z,4.80
2018-12-13T13:00:31.488Z,5.10
2018-12-13T13:03:07.758Z,5.00
2018-12-13T13:05:46.448Z,5.10
2018-12-13T13:08:18.493Z,5.10
2018-12-13T13:10:54.151Z,5.30
2018-12-13T13:13:30.492Z,5.40
2018-12-13T13:16:03.025Z,5.30
2018-12-13T13:18:39.126Z,4.90
2018-12-13T13:21:13.322Z,5.20
2018-12-13T13:23:59.755Z,5.50
2018-12-13T13:26:35.355Z,5.40
2018-12-13T13:29:12.538Z,5.40
2018-12-13T13:31:47.408Z,5.30
2018-12-13T13:34:17.977Z,5.30
2018-12-13T13:36:54.828Z,5.10
2018-12-13T13:39:31.582Z,4.70
2018-12-13T13:42:09.199Z,4.70
2018-12-13T13:44:46.173Z,4.80
2018-12-13T13:47:23.008Z,4.70
2018-12-13T13:49:57.419Z,5.10
2018-12-13T13:52:29.301Z,5.00
2018-12-13T13:55:05.698Z,5.40
2018-12-13T13:57:38.483Z,5.30
2018-12-13T14:00:10.997Z,5.50
2018-12-13T14:02:45.896Z,5.50
2018-12-13T14:05:18.035Z,5.40
2018-12-13T14:07:53.147Z,5.40
2018-12-13T14:10:27.524Z,5.30
2018-12-13T14:13:02.444Z,5.30
2018-12-13T14:15:34.769Z,5.50
2018-12-13T14:18:08.945Z,5.60
2018-12-13T14:23:34.999Z,5.60
2018-12-13T14:26:21.582Z,5.70
2018-12-13T14:28:55.735Z,5.70
2018-12-13T14:31:29.774Z,5.50
2018-12-13T14:34:06.849Z,5.60
2018-12-13T14:36:39.159Z,5.60
2018-12-13T14:39:12.660Z,5.60
2018-12-13T14:41:53.300Z,5.60
2018-12-13T14:44:27.694Z,5.50
2018-12-13T14:46:59.594Z,5.30
2018-12-13T14:49:34.299Z,5.30
2018-12-13T14:52:06.252Z,5.20
2018-12-13T14:54:38.625Z,5.10
2018-12-13T14:57:14.549Z,5.00
2018-12-13T14:59:49.733Z,4.90
2018-12-13T15:02:23.804Z,4.90
2018-12-13T15:04:56.315Z,4.90
2018-12-13T15:07:29.003Z,4.90
2018-12-13T15:10:01.520Z,5.00
2018-12-13T15:12:35.975Z,5.00
2018-12-13T15:15:07.937Z,4.90
2018-12-13T15:17:40.415Z,4.80
2018-12-13T15:20:14.628Z,4.80
2018-12-13T15:22:59.628Z,4.90
2018-12-13T15:25:32.701Z,4.90
2018-12-13T15:28:07.137Z,4.80
2018-12-13T15:30:39.422Z,4.80
2018-12-13T15:33:14.631Z,4.80
2018-12-13T15:35:48.793Z,4.80
2018-12-13T15:38:19.304Z,4.80
2018-12-13T15:40:51.924Z,4.80
2018-12-13T15:43:24.286Z,4.70
2018-12-13T15:45:58.935Z,4.70
2018-12-13T15:48:33.641Z,4.70
2018-12-13T15:51:07.586Z,4.70
2018-12-13T15:53:41.748Z,4.70
2018-12-13T15:56:14.705Z,4.60
2018-12-13T15:58:49.059Z,4.60
2018-12-13T16:01:21.587Z,4.60
2018-12-13T16:03:55.868Z,4.60
2018-12-13T16:06:33.559Z,4.60
2018-12-13T16:09:08.251Z,4.60
2018-12-13T16:11:42.677Z,4.60
2018-12-13T16:14:17.672Z,4.60
2018-12-13T16:16:49.561Z,4.40
2018-12-13T16:19:21.740Z,4.40
2018-12-13T16:21:54.959Z,4.50
2018-12-13T16:24:27.717Z,4.40
2018-12-13T16:27:04.221Z,4.40
2018-12-13T16:29:38.377Z,4.30
2018-12-13T16:32:12.000Z,4.40
2018-12-13T16:34:49.417Z,4.40
2018-12-13T16:37:23.927Z,4.40
2018-12-13T16:39:56.210Z,4.30
2018-12-13T16:42:30.358Z,4.30
2018-12-13T16:45:05.652Z,4.40
2018-12-13T16:47:52.864Z,4.30
2018-12-13T16:50:25.322Z,4.30
2018-12-13T16:52:59.836Z,4.30
2018-12-13T16:55:31.959Z,4.30
2018-12-13T16:58:07.016Z,4.30
2018-12-13T17:00:41.873Z,4.30
2018-12-13T17:03:25.478Z,4.30
2018-12-13T17:05:58.521Z,4.30
2018-12-13T17:08:33.150Z,4.30
2018-12-13T17:11:08.325Z,4.30
2018-12-13T17:13:42.649Z,4.30
2018-12-13T17:16:21.101Z,4.30
2018-12-13T17:18:56.612Z,4.30
2018-12-13T17:21:30.943Z,4.30
2018-12-13T17:24:05.311Z,4.30
2018-12-13T17:26:35.955Z,4.30
2018-12-13T17:29:08.670Z,4.20
2018-12-13T17:31:41.900Z,4.30
2018-12-13T17:34:17.738Z,4.30
2018-12-13T17:36:50.537Z,4.20
2018-12-13T17:39:24.788Z,4.20
2018-12-13T17:41:59.228Z,4.20
2018-12-13T17:44:32.048Z,4.30
2018-12-13T17:47:12.542Z,4.30
2018-12-13T17:49:47.632Z,4.20
2018-12-13T17:52:26.504Z,4.20
2018-12-13T17:55:01.636Z,4.20
2018-12-13T17:57:35.373Z,4.20
2018-12-13T18:00:10.440Z,4.30
2018-12-13T18:02:43.456Z,4.20
2018-12-13T18:05:25.717Z,4.20
2018-12-13T18:08:02.439Z,4.10
2018-12-13T18:13:39.551Z,4.20
2018-12-13T18:19:17.255Z,4.20
2018-12-13T18:21:52.312Z,4.20
2018-12-13T18:24:27.210Z,4.20
2018-12-13T18:26:59.279Z,4.20
2018-12-13T18:29:33.602Z,4.20
2018-12-13T18:32:16.965Z,4.20
2018-12-13T18:34:55.597Z,4.20
2018-12-13T18:37:29.983Z,4.20
2018-12-13T18:40:05.214Z,4.10
2018-12-13T18:42:37.697Z,4.00
2018-12-13T18:45:16.078Z,4.00
2018-12-13T18:47:49.404Z,4.00
2018-12-13T18:50:30.548Z,4.10
2018-12-13T18:53:04.963Z,4.20
2018-12-13T18:55:37.292Z,4.20
2018-12-13T18:58:11.616Z,4.10
2018-12-13T19:00:44.414Z,4.00
2018-12-13T19:03:23.242Z,4.10
2018-12-13T19:05:56.120Z,4.20
2018-12-13T19:08:42.972Z,4.20
2018-12-13T19:11:19.349Z,4.20
2018-12-13T19:14:08.522Z,4.20
2018-12-13T19:16:46.673Z,4.20
2018-12-13T19:19:33.990Z,4.20
2018-12-13T19:22:08.378Z,4.20
2018-12-13T19:24:43.873Z,4.20
2018-12-13T19:27:19.803Z,4.00
2018-12-13T19:29:53.051Z,4.10
2018-12-13T19:32:24.349Z,4.10
2018-12-13T19:35:00.340Z,4.20
2018-12-13T19:37:33.243Z,4.20
2018-12-13T19:40:07.976Z,4.10
2018-12-13T19:42:51.662Z,4.20
2018-12-13T19:48:45.734Z,4.20
2018-12-13T19:51:18.186Z,4.20
2018-12-13T19:53:49.103Z,4.20
2018-12-13T19:56:23.669Z,4.20
2018-12-13T19:58:57.365Z,4.20
2018-12-13T20:01:30.169Z,4.20
2018-12-13T20:04:08.653Z,4.20
2018-12-13T20:06:41.185Z,4.20
2018-12-13T20:09:15.733Z,4.30
2018-12-13T20:11:49.279Z,4.30
2018-12-13T20:14:22.727Z,4.30
2018-12-13T20:16:56.442Z,4.30
2018-12-13T20:19:28.910Z,4.30
2018-12-13T20:22:09.253Z,4.30
2018-12-13T20:24:42.878Z,4.30
2018-12-13T20:27:17.967Z,4.30
2018-12-13T20:29:51.058Z,4.30
2018-12-13T20:33:26.634Z,4.20
2018-12-13T20:35:59.218Z,4.10
2018-12-13T20:38:32.171Z,4.10
2018-12-13T20:41:11.627Z,4.20
2018-12-13T20:43:56.786Z,4.10
2018-12-13T20:46:31.797Z,4.00
2018-12-13T20:49:05.320Z,4.10
2018-12-13T20:51:37.907Z,4.20
2018-12-13T20:54:10.359Z,4.20
2018-12-13T20:56:47.004Z,4.20
2018-12-13T20:59:26.965Z,4.20
2018-12-13T21:02:02.501Z,4.30
2018-12-13T21:04:35.286Z,4.30
2018-12-13T21:07:11.429Z,4.10
2018-12-13T21:09:47.048Z,4.20
2018-12-13T21:12:28.158Z,4.10
2018-12-13T21:15:02.855Z,4.10
2018-12-13T21:17:39.899Z,4.10
2018-12-13T21:20:14.250Z,4.10
2018-12-13T21:22:47.460Z,4.20
2018-12-13T21:25:30.899Z,4.10
2018-12-13T21:28:06.086Z,4.10
2018-12-13T21:30:40.384Z,4.10
2018-12-13T21:33:12.294Z,4.20
2018-12-13T21:35:48.803Z,4.10
2018-12-13T21:38:24.435Z,4.20
2018-12-13T21:40:55.985Z,4.20
2018-12-13T21:43:31.510Z,4.10
2018-12-13T21:46:04.498Z,4.10
2018-12-13T21:48:39.814Z,4.10
2018-12-13T21:51:12.860Z,4.00
2018-12-13T21:53:48.077Z,3.90
2018-12-13T21:56:20.422Z,3.80
2018-12-13T21:58:53.694Z,3.90
2018-12-13T22:01:34.148Z,3.80
2018-12-13T22:04:06.540Z,3.70
2018-12-13T22:06:38.701Z,3.70
2018-12-13T22:09:10.730Z,3.80
2018-12-13T22:11:42.785Z,3.50
2018-12-13T22:14:12.514Z,3.60
2018-12-13T22:16:45.132Z,3.60
2018-12-13T22:19:16.799Z,3.60
2018-12-13T22:21:47.285Z,3.60
2018-12-13T22:24:21.572Z,3.40
2018-12-13T22:26:57.653Z,3.50
2018-12-13T22:29:32.588Z,3.50
2018-12-13T22:32:06.220Z,3.50
2018-12-13T22:34:50.867Z,3.40
2018-12-13T22:37:23.772Z,3.30
2018-12-13T22:39:57.913Z,3.30
2018-12-13T22:42:29.941Z,3.30
2018-12-13T22:45:04.570Z,3.10
2018-12-13T22:47:39.355Z,3.10
2018-12-13T22:50:12.171Z,3.00
2018-12-13T22:52:44.859Z,3.00
2018-12-13T22:55:17.453Z,3.10
2018-12-13T22:57:49.351Z,3.00
2018-12-13T23:00:24.141Z,2.90
2018-12-13T23:02:55.896Z,2.70
2018-12-13T23:05:28.309Z,2.60
2018-12-13T23:08:01.174Z,2.70
2018-12-13T23:10:35.511Z,2.70
2018-12-13T23:13:06.324Z,2.70
2018-12-13T23:15:38.785Z,2.70
2018-12-13T23:18:10.668Z,2.70
2018-12-13T23:20:44.979Z,2.70
2018-12-13T23:23:23.027Z,2.70
2018-12-13T23:26:01.245Z,2.70
2018-12-13T23:28:33.053Z,2.60
2018-12-13T23:31:07.486Z,2.60
2018-12-13T23:33:39.140Z,2.60
2018-12-13T23:36:14.067Z,2.60
2018-12-13T23:38:48.275Z,2.60
2018-12-13T23:41:20.017Z,2.50
2018-12-13T23:43:55.469Z,2.60
2018-12-13T23:46:34.172Z,2.70
2018-12-13T23:49:06.001Z,2.70
2018-12-13T23:51:38.908Z,2.60
2018-12-13T23:54:17.062Z,2.60
2018-12-13T23:56:51.183Z,2.40
2018-12-13T23:59:23.958Z,2.50
